sensor_id;sensor_type;location;lat;lon;timestamp;P1;durP1;ratioP1;P2;durP2;ratioP2
16612;SDS011;8419;52.358;9.752;2023-09-18T00:02:18;6.57;;;4.22;;
16612;SDS011;8419;52.358;9.752;2023-09-18T00:05:03;5.90;;;4.25;;
16612;SDS011;8419;52.358;9.752;2023-09-18T00:07:49;6.62;;;4.30;;
16612;SDS011;8419;52.358;9.752;2023-09-18T00:10:35;5.62;;;4.60;;
16612;SDS011;8419;52.358;9.752;2023-09-18T00:13:21;6.22;;;4.50;;
16612;SDS011;8419;52.358;9.752;2023-09-18T00:16:07;6.57;;;4.32;;
16612;SDS011;8419;52.358;9.752;2023-09-18T00:18:53;6.72;;;4.85;;
16612;SDS011;8419;52.358;9.752;2023-09-18T00:21:38;5.15;;;4.15;;
16612;SDS011;8419;52.358;9.752;2023-09-18T00:24:27;6.90;;;4.60;;
16612;SDS011;8419;52.358;9.752;2023-09-18T00:27:13;8.48;;;4.90;;
16612;SDS011;8419;52.358;9.752;2023-09-18T00:29:59;8.23;;;4.43;;
16612;SDS011;8419;52.358;9.752;2023-09-18T00:32:44;4.25;;;3.80;;
16612;SDS011;8419;52.358;9.752;2023-09-18T00:35:31;6.28;;;4.18;;
16612;SDS011;8419;52.358;9.752;2023-09-18T00:38:16;4.87;;;3.78;;
16612;SDS011;8419;52.358;9.752;2023-09-18T00:41:03;5.35;;;3.85;;
16612;SDS011;8419;52.358;9.752;2023-09-18T00:43:51;4.30;;;3.90;;
16612;SDS011;8419;52.358;9.752;2023-09-18T00:46:38;5.20;;;4.03;;
16612;SDS011;8419;52.358;9.752;2023-09-18T00:49:25;5.65;;;4.10;;
16612;SDS011;8419;52.358;9.752;2023-09-18T00:52:10;5.50;;;4.53;;
16612;SDS011;8419;52.358;9.752;2023-09-18T00:54:56;4.93;;;4.03;;
16612;SDS011;8419;52.358;9.752;2023-09-18T00:57:42;6.95;;;4.30;;
16612;SDS011;8419;52.358;9.752;2023-09-18T01:00:28;5.53;;;4.32;;
16612;SDS011;8419;52.358;9.752;2023-09-18T01:03:14;5.00;;;3.92;;
16612;SDS011;8419;52.358;9.752;2023-09-18T01:06:02;7.62;;;4.03;;
16612;SDS011;8419;52.358;9.752;2023-09-18T01:08:48;6.37;;;3.80;;
16612;SDS011;8419;52.358;9.752;2023-09-18T01:11:42;5.62;;;4.05;;
16612;SDS011;8419;52.358;9.752;2023-09-18T01:14:35;5.50;;;4.35;;
16612;SDS011;8419;52.358;9.752;2023-09-18T01:17:27;5.80;;;4.05;;
16612;SDS011;8419;52.358;9.752;2023-09-18T01:20:14;5.32;;;3.75;;
16612;SDS011;8419;52.358;9.752;2023-09-18T01:22:59;4.07;;;3.67;;
16612;SDS011;8419;52.358;9.752;2023-09-18T01:25:46;5.25;;;4.32;;
16612;SDS011;8419;52.358;9.752;2023-09-18T01:28:32;5.18;;;4.43;;
16612;SDS011;8419;52.358;9.752;2023-09-18T01:31:17;7.05;;;3.95;;
16612;SDS011;8419;52.358;9.752;2023-09-18T01:34:04;5.55;;;4.00;;
16612;SDS011;8419;52.358;9.752;2023-09-18T01:36:50;4.82;;;4.32;;
16612;SDS011;8419;52.358;9.752;2023-09-18T01:39:36;4.82;;;4.07;;
16612;SDS011;8419;52.358;9.752;2023-09-18T01:42:24;6.65;;;4.50;;
16612;SDS011;8419;52.358;9.752;2023-09-18T01:45:10;8.65;;;4.47;;
16612;SDS011;8419;52.358;9.752;2023-09-18T01:47:57;5.80;;;4.22;;
16612;SDS011;8419;52.358;9.752;2023-09-18T01:50:42;6.62;;;4.80;;
16612;SDS011;8419;52.358;9.752;2023-09-18T01:53:28;5.75;;;4.87;;
16612;SDS011;8419;52.358;9.752;2023-09-18T01:56:15;6.62;;;4.20;;
16612;SDS011;8419;52.358;9.752;2023-09-18T01:59:01;5.72;;;4.30;;
16612;SDS011;8419;52.358;9.752;2023-09-18T02:01:46;6.97;;;4.78;;
16612;SDS011;8419;52.358;9.752;2023-09-18T02:04:34;6.80;;;4.28;;
16612;SDS011;8419;52.358;9.752;2023-09-18T02:07:20;5.65;;;4.07;;
16612;SDS011;8419;52.358;9.752;2023-09-18T02:10:07;5.03;;;3.75;;
16612;SDS011;8419;52.358;9.752;2023-09-18T02:12:53;6.90;;;4.70;;
16612;SDS011;8419;52.358;9.752;2023-09-18T02:15:39;4.25;;;3.85;;
16612;SDS011;8419;52.358;9.752;2023-09-18T02:18:25;6.18;;;4.70;;
16612;SDS011;8419;52.358;9.752;2023-09-18T02:21:11;5.55;;;4.40;;
16612;SDS011;8419;52.358;9.752;2023-09-18T02:24:03;5.70;;;4.07;;
16612;SDS011;8419;52.358;9.752;2023-09-18T02:26:51;6.80;;;4.03;;
16612;SDS011;8419;52.358;9.752;2023-09-18T02:29:37;5.18;;;3.80;;
16612;SDS011;8419;52.358;9.752;2023-09-18T02:32:22;7.07;;;4.25;;
16612;SDS011;8419;52.358;9.752;2023-09-18T02:35:08;8.15;;;4.78;;
16612;SDS011;8419;52.358;9.752;2023-09-18T02:37:53;7.32;;;4.25;;
16612;SDS011;8419;52.358;9.752;2023-09-18T02:40:40;4.97;;;3.92;;
16612;SDS011;8419;52.358;9.752;2023-09-18T02:43:26;4.70;;;3.90;;
16612;SDS011;8419;52.358;9.752;2023-09-18T02:46:11;5.62;;;4.47;;
16612;SDS011;8419;52.358;9.752;2023-09-18T02:48:57;6.43;;;4.30;;
16612;SDS011;8419;52.358;9.752;2023-09-18T02:51:42;7.95;;;4.47;;
16612;SDS011;8419;52.358;9.752;2023-09-18T02:54:28;3.97;;;3.40;;
16612;SDS011;8419;52.358;9.752;2023-09-18T02:57:13;4.50;;;4.10;;
16612;SDS011;8419;52.358;9.752;2023-09-18T03:00:00;6.53;;;4.15;;
16612;SDS011;8419;52.358;9.752;2023-09-18T03:02:45;6.95;;;4.30;;
16612;SDS011;8419;52.358;9.752;2023-09-18T03:05:31;4.32;;;3.80;;
16612;SDS011;8419;52.358;9.752;2023-09-18T03:08:17;4.90;;;4.25;;
16612;SDS011;8419;52.358;9.752;2023-09-18T03:11:02;4.57;;;3.83;;
16612;SDS011;8419;52.358;9.752;2023-09-18T03:13:54;4.47;;;3.90;;
16612;SDS011;8419;52.358;9.752;2023-09-18T03:16:40;4.97;;;3.92;;
16612;SDS011;8419;52.358;9.752;2023-09-18T03:19:25;5.45;;;4.05;;
16612;SDS011;8419;52.358;9.752;2023-09-18T03:22:11;6.03;;;3.37;;
16612;SDS011;8419;52.358;9.752;2023-09-18T03:24:59;7.05;;;3.97;;
16612;SDS011;8419;52.358;9.752;2023-09-18T03:27:45;4.55;;;3.87;;
16612;SDS011;8419;52.358;9.752;2023-09-18T03:30:31;5.87;;;4.12;;
16612;SDS011;8419;52.358;9.752;2023-09-18T03:33:17;5.43;;;4.10;;
16612;SDS011;8419;52.358;9.752;2023-09-18T03:36:03;4.50;;;3.87;;
16612;SDS011;8419;52.358;9.752;2023-09-18T03:38:49;6.03;;;3.67;;
16612;SDS011;8419;52.358;9.752;2023-09-18T03:41:35;7.05;;;4.20;;
16612;SDS011;8419;52.358;9.752;2023-09-18T03:44:20;4.75;;;4.00;;
16612;SDS011;8419;52.358;9.752;2023-09-18T03:47:07;6.37;;;4.35;;
16612;SDS011;8419;52.358;9.752;2023-09-18T03:49:52;6.53;;;4.32;;
16612;SDS011;8419;52.358;9.752;2023-09-18T03:52:38;7.82;;;4.60;;
16612;SDS011;8419;52.358;9.752;2023-09-18T03:55:24;5.82;;;4.25;;
16612;SDS011;8419;52.358;9.752;2023-09-18T03:58:10;5.75;;;4.47;;
16612;SDS011;8419;52.358;9.752;2023-09-18T04:00:57;5.53;;;4.20;;
16612;SDS011;8419;52.358;9.752;2023-09-18T04:03:42;5.97;;;4.62;;
16612;SDS011;8419;52.358;9.752;2023-09-18T04:06:32;6.55;;;4.40;;
16612;SDS011;8419;52.358;9.752;2023-09-18T04:09:22;5.72;;;4.25;;
16612;SDS011;8419;52.358;9.752;2023-09-18T04:12:08;4.62;;;4.18;;
16612;SDS011;8419;52.358;9.752;2023-09-18T04:14:54;7.22;;;4.15;;
16612;SDS011;8419;52.358;9.752;2023-09-18T04:17:39;6.97;;;4.72;;
16612;SDS011;8419;52.358;9.752;2023-09-18T04:20:25;5.97;;;4.37;;
16612;SDS011;8419;52.358;9.752;2023-09-18T04:23:18;5.12;;;4.10;;
16612;SDS011;8419;52.358;9.752;2023-09-18T04:26:06;4.90;;;4.12;;
16612;SDS011;8419;52.358;9.752;2023-09-18T04:28:52;5.90;;;4.45;;
16612;SDS011;8419;52.358;9.752;2023-09-18T04:31:38;5.32;;;4.32;;
16612;SDS011;8419;52.358;9.752;2023-09-18T04:34:25;6.70;;;4.22;;
16612;SDS011;8419;52.358;9.752;2023-09-18T04:37:10;6.22;;;4.72;;
16612;SDS011;8419;52.358;9.752;2023-09-18T04:39:55;7.78;;;5.10;;
16612;SDS011;8419;52.358;9.752;2023-09-18T04:42:42;6.68;;;4.57;;
16612;SDS011;8419;52.358;9.752;2023-09-18T04:45:28;7.30;;;4.90;;
16612;SDS011;8419;52.358;9.752;2023-09-18T04:48:14;6.30;;;4.20;;
16612;SDS011;8419;52.358;9.752;2023-09-18T04:50:59;5.55;;;4.00;;
16612;SDS011;8419;52.358;9.752;2023-09-18T04:53:47;6.65;;;4.30;;
16612;SDS011;8419;52.358;9.752;2023-09-18T04:56:33;8.32;;;4.60;;
16612;SDS011;8419;52.358;9.752;2023-09-18T04:59:19;6.05;;;4.87;;
16612;SDS011;8419;52.358;9.752;2023-09-18T05:02:04;6.03;;;4.70;;
16612;SDS011;8419;52.358;9.752;2023-09-18T05:04:50;5.28;;;4.35;;
16612;SDS011;8419;52.358;9.752;2023-09-18T05:07:35;6.78;;;4.55;;
16612;SDS011;8419;52.358;9.752;2023-09-18T05:10:21;5.12;;;4.43;;
16612;SDS011;8419;52.358;9.752;2023-09-18T05:13:07;6.40;;;3.83;;
16612;SDS011;8419;52.358;9.752;2023-09-18T05:15:53;5.37;;;4.12;;
16612;SDS011;8419;52.358;9.752;2023-09-18T05:18:40;6.62;;;4.62;;
16612;SDS011;8419;52.358;9.752;2023-09-18T05:21:26;9.57;;;4.22;;
16612;SDS011;8419;52.358;9.752;2023-09-18T05:24:12;7.40;;;4.57;;
16612;SDS011;8419;52.358;9.752;2023-09-18T05:26:57;7.25;;;4.80;;
16612;SDS011;8419;52.358;9.752;2023-09-18T05:29:43;8.68;;;4.82;;
16612;SDS011;8419;52.358;9.752;2023-09-18T05:32:28;6.93;;;4.28;;
16612;SDS011;8419;52.358;9.752;2023-09-18T05:35:14;7.47;;;4.50;;
16612;SDS011;8419;52.358;9.752;2023-09-18T05:38:01;4.28;;;3.87;;
16612;SDS011;8419;52.358;9.752;2023-09-18T05:40:47;7.43;;;4.60;;
16612;SDS011;8419;52.358;9.752;2023-09-18T05:43:33;6.28;;;4.57;;
16612;SDS011;8419;52.358;9.752;2023-09-18T05:46:20;6.28;;;4.03;;
16612;SDS011;8419;52.358;9.752;2023-09-18T05:49:05;6.15;;;4.32;;
16612;SDS011;8419;52.358;9.752;2023-09-18T05:51:51;6.90;;;5.18;;
16612;SDS011;8419;52.358;9.752;2023-09-18T05:54:37;5.82;;;4.40;;
16612;SDS011;8419;52.358;9.752;2023-09-18T05:57:22;7.78;;;4.43;;
16612;SDS011;8419;52.358;9.752;2023-09-18T06:00:08;6.82;;;4.70;;
16612;SDS011;8419;52.358;9.752;2023-09-18T06:02:57;5.75;;;4.45;;
16612;SDS011;8419;52.358;9.752;2023-09-18T06:05:46;5.07;;;4.10;;
16612;SDS011;8419;52.358;9.752;2023-09-18T06:08:33;5.40;;;4.37;;
16612;SDS011;8419;52.358;9.752;2023-09-18T06:11:19;7.57;;;4.05;;
16612;SDS011;8419;52.358;9.752;2023-09-18T06:14:04;5.07;;;4.10;;
16612;SDS011;8419;52.358;9.752;2023-09-18T06:16:50;6.97;;;4.45;;
16612;SDS011;8419;52.358;9.752;2023-09-18T06:19:36;5.65;;;4.20;;
16612;SDS011;8419;52.358;9.752;2023-09-18T06:22:21;4.95;;;4.20;;
16612;SDS011;8419;52.358;9.752;2023-09-18T06:25:07;7.70;;;4.30;;
16612;SDS011;8419;52.358;9.752;2023-09-18T06:27:54;6.75;;;4.10;;
16612;SDS011;8419;52.358;9.752;2023-09-18T06:30:42;7.28;;;4.00;;
16612;SDS011;8419;52.358;9.752;2023-09-18T06:33:28;6.50;;;4.05;;
16612;SDS011;8419;52.358;9.752;2023-09-18T06:36:14;5.45;;;3.78;;
16612;SDS011;8419;52.358;9.752;2023-09-18T06:38:59;6.40;;;3.80;;
16612;SDS011;8419;52.358;9.752;2023-09-18T06:41:46;5.75;;;4.60;;
16612;SDS011;8419;52.358;9.752;2023-09-18T06:44:32;5.55;;;4.22;;
16612;SDS011;8419;52.358;9.752;2023-09-18T06:47:18;6.93;;;4.32;;
16612;SDS011;8419;52.358;9.752;2023-09-18T06:50:06;4.60;;;4.00;;
16612;SDS011;8419;52.358;9.752;2023-09-18T06:52:56;6.80;;;4.32;;
16612;SDS011;8419;52.358;9.752;2023-09-18T06:55:41;5.97;;;4.30;;
16612;SDS011;8419;52.358;9.752;2023-09-18T06:58:29;7.45;;;4.47;;
16612;SDS011;8419;52.358;9.752;2023-09-18T07:01:15;7.40;;;4.32;;
16612;SDS011;8419;52.358;9.752;2023-09-18T07:04:03;5.90;;;4.30;;
16612;SDS011;8419;52.358;9.752;2023-09-18T07:06:49;6.15;;;4.22;;
16612;SDS011;8419;52.358;9.752;2023-09-18T07:09:36;7.40;;;4.30;;
16612;SDS011;8419;52.358;9.752;2023-09-18T07:12:21;8.52;;;4.30;;
16612;SDS011;8419;52.358;9.752;2023-09-18T07:15:08;6.78;;;4.18;;
16612;SDS011;8419;52.358;9.752;2023-09-18T07:17:54;3.90;;;3.47;;
16612;SDS011;8419;52.358;9.752;2023-09-18T07:20:40;7.93;;;4.10;;
16612;SDS011;8419;52.358;9.752;2023-09-18T07:23:26;4.55;;;3.60;;
16612;SDS011;8419;52.358;9.752;2023-09-18T07:26:11;5.82;;;3.50;;
16612;SDS011;8419;52.358;9.752;2023-09-18T07:28:57;6.53;;;3.50;;
16612;SDS011;8419;52.358;9.752;2023-09-18T07:31:45;6.53;;;3.65;;
16612;SDS011;8419;52.358;9.752;2023-09-18T07:34:31;4.25;;;3.30;;
16612;SDS011;8419;52.358;9.752;2023-09-18T07:37:16;4.00;;;3.40;;
16612;SDS011;8419;52.358;9.752;2023-09-18T07:40:06;4.07;;;3.20;;
16612;SDS011;8419;52.358;9.752;2023-09-18T07:42:52;4.25;;;3.40;;
16612;SDS011;8419;52.358;9.752;2023-09-18T07:45:38;5.22;;;3.60;;
16612;SDS011;8419;52.358;9.752;2023-09-18T07:48:24;3.45;;;2.92;;
16612;SDS011;8419;52.358;9.752;2023-09-18T07:51:11;4.25;;;3.35;;
16612;SDS011;8419;52.358;9.752;2023-09-18T07:53:56;6.82;;;3.35;;
16612;SDS011;8419;52.358;9.752;2023-09-18T07:56:42;3.72;;;3.33;;
16612;SDS011;8419;52.358;9.752;2023-09-18T07:59:27;8.38;;;3.37;;
16612;SDS011;8419;52.358;9.752;2023-09-18T08:02:13;4.65;;;3.37;;
16612;SDS011;8419;52.358;9.752;2023-09-18T08:04:59;5.12;;;3.45;;
16612;SDS011;8419;52.358;9.752;2023-09-18T08:07:44;4.15;;;3.50;;
16612;SDS011;8419;52.358;9.752;2023-09-18T08:10:31;4.75;;;3.65;;
16612;SDS011;8419;52.358;9.752;2023-09-18T08:13:20;5.32;;;2.95;;
16612;SDS011;8419;52.358;9.752;2023-09-18T08:16:07;5.30;;;3.35;;
16612;SDS011;8419;52.358;9.752;2023-09-18T08:18:53;6.28;;;3.20;;
16612;SDS011;8419;52.358;9.752;2023-09-18T08:21:40;3.50;;;3.03;;
16612;SDS011;8419;52.358;9.752;2023-09-18T08:24:25;4.68;;;3.22;;
16612;SDS011;8419;52.358;9.752;2023-09-18T08:27:11;6.35;;;3.10;;
16612;SDS011;8419;52.358;9.752;2023-09-18T08:30:00;5.70;;;3.40;;
16612;SDS011;8419;52.358;9.752;2023-09-18T08:32:46;5.25;;;3.30;;
16612;SDS011;8419;52.358;9.752;2023-09-18T08:35:32;6.30;;;3.12;;
16612;SDS011;8419;52.358;9.752;2023-09-18T08:38:17;5.72;;;3.90;;
16612;SDS011;8419;52.358;9.752;2023-09-18T08:41:03;5.85;;;2.78;;
16612;SDS011;8419;52.358;9.752;2023-09-18T08:43:49;5.72;;;3.08;;
16612;SDS011;8419;52.358;9.752;2023-09-18T08:46:36;5.07;;;2.90;;
16612;SDS011;8419;52.358;9.752;2023-09-18T08:49:22;3.35;;;2.60;;
16612;SDS011;8419;52.358;9.752;2023-09-18T08:52:09;5.40;;;2.72;;
16612;SDS011;8419;52.358;9.752;2023-09-18T08:54:57;7.80;;;2.70;;
16612;SDS011;8419;52.358;9.752;2023-09-18T08:57:45;6.32;;;2.70;;
16612;SDS011;8419;52.358;9.752;2023-09-18T09:00:32;6.00;;;2.70;;
16612;SDS011;8419;52.358;9.752;2023-09-18T09:03:19;5.72;;;2.50;;
16612;SDS011;8419;52.358;9.752;2023-09-18T09:06:05;5.32;;;2.70;;
16612;SDS011;8419;52.358;9.752;2023-09-18T09:08:52;5.87;;;2.22;;
16612;SDS011;8419;52.358;9.752;2023-09-18T09:11:37;3.00;;;2.10;;
16612;SDS011;8419;52.358;9.752;2023-09-18T09:14:23;7.43;;;2.58;;
16612;SDS011;8419;52.358;9.752;2023-09-18T09:17:17;5.50;;;2.53;;
16612;SDS011;8419;52.358;9.752;2023-09-18T09:20:10;5.80;;;2.20;;
16612;SDS011;8419;52.358;9.752;2023-09-18T09:23:02;5.60;;;2.45;;
16612;SDS011;8419;52.358;9.752;2023-09-18T09:25:50;3.12;;;2.45;;
16612;SDS011;8419;52.358;9.752;2023-09-18T09:28:38;6.97;;;2.08;;
16612;SDS011;8419;52.358;9.752;2023-09-18T09:31:28;6.50;;;2.17;;
16612;SDS011;8419;52.358;9.752;2023-09-18T09:34:23;3.42;;;2.20;;
16612;SDS011;8419;52.358;9.752;2023-09-18T09:37:10;5.55;;;2.10;;
16612;SDS011;8419;52.358;9.752;2023-09-18T09:39:57;4.32;;;2.40;;
16612;SDS011;8419;52.358;9.752;2023-09-18T09:42:53;8.05;;;2.67;;
16612;SDS011;8419;52.358;9.752;2023-09-18T09:45:44;5.55;;;2.30;;
16612;SDS011;8419;52.358;9.752;2023-09-18T09:48:31;8.18;;;2.30;;
16612;SDS011;8419;52.358;9.752;2023-09-18T09:51:17;5.53;;;2.40;;
16612;SDS011;8419;52.358;9.752;2023-09-18T09:54:05;5.07;;;1.77;;
16612;SDS011;8419;52.358;9.752;2023-09-18T09:56:51;3.87;;;2.25;;
16612;SDS011;8419;52.358;9.752;2023-09-18T09:59:37;5.47;;;2.12;;
16612;SDS011;8419;52.358;9.752;2023-09-18T10:02:23;6.55;;;2.08;;
16612;SDS011;8419;52.358;9.752;2023-09-18T10:05:10;5.47;;;2.05;;
16612;SDS011;8419;52.358;9.752;2023-09-18T10:07:57;7.43;;;2.35;;
16612;SDS011;8419;52.358;9.752;2023-09-18T10:10:46;4.43;;;2.17;;
16612;SDS011;8419;52.358;9.752;2023-09-18T10:13:33;6.00;;;2.00;;
16612;SDS011;8419;52.358;9.752;2023-09-18T10:16:25;6.20;;;2.00;;
16612;SDS011;8419;52.358;9.752;2023-09-18T10:19:17;3.83;;;1.98;;
16612;SDS011;8419;52.358;9.752;2023-09-18T10:22:14;3.10;;;1.83;;
16612;SDS011;8419;52.358;9.752;2023-09-18T10:25:08;4.97;;;1.95;;
16612;SDS011;8419;52.358;9.752;2023-09-18T10:28:01;4.12;;;1.85;;
16612;SDS011;8419;52.358;9.752;2023-09-18T10:30:50;4.87;;;2.67;;
16612;SDS011;8419;52.358;9.752;2023-09-18T10:33:36;5.57;;;2.30;;
16612;SDS011;8419;52.358;9.752;2023-09-18T10:36:23;4.47;;;1.92;;
16612;SDS011;8419;52.358;9.752;2023-09-18T10:39:10;3.87;;;2.28;;
16612;SDS011;8419;52.358;9.752;2023-09-18T10:41:57;4.22;;;1.92;;
16612;SDS011;8419;52.358;9.752;2023-09-18T10:44:47;4.43;;;2.30;;
16612;SDS011;8419;52.358;9.752;2023-09-18T10:47:34;4.93;;;2.03;;
16612;SDS011;8419;52.358;9.752;2023-09-18T10:50:24;3.78;;;1.70;;
16612;SDS011;8419;52.358;9.752;2023-09-18T10:53:10;2.42;;;1.85;;
16612;SDS011;8419;52.358;9.752;2023-09-18T10:55:56;4.12;;;2.08;;
16612;SDS011;8419;52.358;9.752;2023-09-18T10:58:43;4.15;;;2.05;;
16612;SDS011;8419;52.358;9.752;2023-09-18T11:01:28;4.68;;;1.85;;
16612;SDS011;8419;52.358;9.752;2023-09-18T11:04:17;4.43;;;1.75;;
16612;SDS011;8419;52.358;9.752;2023-09-18T11:07:04;11.38;;;2.95;;
16612;SDS011;8419;52.358;9.752;2023-09-18T11:09:50;7.72;;;1.87;;
16612;SDS011;8419;52.358;9.752;2023-09-18T11:12:42;3.28;;;1.80;;
16612;SDS011;8419;52.358;9.752;2023-09-18T11:15:31;5.93;;;1.73;;
16612;SDS011;8419;52.358;9.752;2023-09-18T11:18:21;2.95;;;1.83;;
16612;SDS011;8419;52.358;9.752;2023-09-18T11:21:07;3.15;;;1.55;;
16612;SDS011;8419;52.358;9.752;2023-09-18T11:24:00;5.18;;;1.77;;
16612;SDS011;8419;52.358;9.752;2023-09-18T11:26:48;5.40;;;2.20;;
16612;SDS011;8419;52.358;9.752;2023-09-18T11:29:36;2.28;;;1.70;;
16612;SDS011;8419;52.358;9.752;2023-09-18T11:32:38;5.30;;;1.83;;
16612;SDS011;8419;52.358;9.752;2023-09-18T11:35:27;5.28;;;1.60;;
16612;SDS011;8419;52.358;9.752;2023-09-18T11:38:13;4.45;;;1.80;;
16612;SDS011;8419;52.358;9.752;2023-09-18T11:41:00;5.28;;;1.60;;
16612;SDS011;8419;52.358;9.752;2023-09-18T11:47:37;4.75;;;1.75;;
16612;SDS011;8419;52.358;9.752;2023-09-18T11:50:27;4.12;;;1.75;;
16612;SDS011;8419;52.358;9.752;2023-09-18T11:53:15;4.00;;;1.75;;
16612;SDS011;8419;52.358;9.752;2023-09-18T11:56:02;3.62;;;1.60;;
16612;SDS011;8419;52.358;9.752;2023-09-18T11:58:49;4.12;;;1.45;;
16612;SDS011;8419;52.358;9.752;2023-09-18T12:01:35;5.07;;;1.50;;
16612;SDS011;8419;52.358;9.752;2023-09-18T12:04:28;2.78;;;1.48;;
16612;SDS011;8419;52.358;9.752;2023-09-18T12:07:13;3.40;;;1.67;;
16612;SDS011;8419;52.358;9.752;2023-09-18T12:09:59;2.28;;;1.60;;
16612;SDS011;8419;52.358;9.752;2023-09-18T12:12:49;2.55;;;1.60;;
16612;SDS011;8419;52.358;9.752;2023-09-18T12:15:34;2.72;;;1.48;;
16612;SDS011;8419;52.358;9.752;2023-09-18T12:18:22;4.05;;;1.37;;
16612;SDS011;8419;52.358;9.752;2023-09-18T12:21:09;3.17;;;1.77;;
16612;SDS011;8419;52.358;9.752;2023-09-18T12:23:55;3.97;;;1.70;;
16612;SDS011;8419;52.358;9.752;2023-09-18T12:26:40;5.12;;;1.50;;
16612;SDS011;8419;52.358;9.752;2023-09-18T12:29:26;3.72;;;1.42;;
16612;SDS011;8419;52.358;9.752;2023-09-18T12:32:12;1.73;;;1.30;;
16612;SDS011;8419;52.358;9.752;2023-09-18T12:34:59;3.03;;;1.25;;
16612;SDS011;8419;52.358;9.752;2023-09-18T12:37:48;3.05;;;1.35;;
16612;SDS011;8419;52.358;9.752;2023-09-18T12:40:34;1.27;;;1.15;;
16612;SDS011;8419;52.358;9.752;2023-09-18T12:43:20;1.85;;;1.12;;
16612;SDS011;8419;52.358;9.752;2023-09-18T12:46:06;2.90;;;1.30;;
16612;SDS011;8419;52.358;9.752;2023-09-18T12:48:54;3.53;;;1.20;;
16612;SDS011;8419;52.358;9.752;2023-09-18T12:51:41;4.00;;;1.02;;
16612;SDS011;8419;52.358;9.752;2023-09-18T12:54:39;3.58;;;1.30;;
16612;SDS011;8419;52.358;9.752;2023-09-18T12:57:26;4.37;;;1.00;;
16612;SDS011;8419;52.358;9.752;2023-09-18T13:00:14;1.40;;;1.00;;
16612;SDS011;8419;52.358;9.752;2023-09-18T13:03:04;4.87;;;1.42;;
16612;SDS011;8419;52.358;9.752;2023-09-18T13:05:51;1.55;;;0.90;;
16612;SDS011;8419;52.358;9.752;2023-09-18T13:08:38;3.00;;;1.02;;
16612;SDS011;8419;52.358;9.752;2023-09-18T13:11:24;2.05;;;1.00;;
16612;SDS011;8419;52.358;9.752;2023-09-18T13:14:10;1.05;;;0.93;;
16612;SDS011;8419;52.358;9.752;2023-09-18T13:17:00;1.37;;;0.75;;
16612;SDS011;8419;52.358;9.752;2023-09-18T13:19:48;2.65;;;0.95;;
16612;SDS011;8419;52.358;9.752;2023-09-18T13:22:34;2.50;;;1.10;;
16612;SDS011;8419;52.358;9.752;2023-09-18T13:25:19;4.35;;;1.12;;
16612;SDS011;8419;52.358;9.752;2023-09-18T13:28:07;1.27;;;1.08;;
16612;SDS011;8419;52.358;9.752;2023-09-18T13:30:54;2.47;;;1.20;;
16612;SDS011;8419;52.358;9.752;2023-09-18T13:33:40;3.58;;;1.10;;
16612;SDS011;8419;52.358;9.752;2023-09-18T13:36:28;2.17;;;1.00;;
16612;SDS011;8419;52.358;9.752;2023-09-18T13:39:15;2.78;;;1.35;;
16612;SDS011;8419;52.358;9.752;2023-09-18T13:42:02;3.15;;;1.25;;
16612;SDS011;8419;52.358;9.752;2023-09-18T13:44:48;3.20;;;1.45;;
16612;SDS011;8419;52.358;9.752;2023-09-18T13:47:34;2.03;;;1.30;;
16612;SDS011;8419;52.358;9.752;2023-09-18T13:50:23;5.15;;;1.40;;
16612;SDS011;8419;52.358;9.752;2023-09-18T13:53:09;2.80;;;1.60;;
16612;SDS011;8419;52.358;9.752;2023-09-18T13:55:55;4.05;;;1.50;;
16612;SDS011;8419;52.358;9.752;2023-09-18T13:58:41;3.58;;;1.42;;
16612;SDS011;8419;52.358;9.752;2023-09-18T14:01:26;2.53;;;1.20;;
16612;SDS011;8419;52.358;9.752;2023-09-18T14:04:12;4.50;;;1.50;;
16612;SDS011;8419;52.358;9.752;2023-09-18T14:06:58;2.30;;;1.45;;
16612;SDS011;8419;52.358;9.752;2023-09-18T14:09:44;2.95;;;1.55;;
16612;SDS011;8419;52.358;9.752;2023-09-18T14:12:30;4.47;;;1.45;;
16612;SDS011;8419;52.358;9.752;2023-09-18T14:15:16;3.90;;;1.83;;
16612;SDS011;8419;52.358;9.752;2023-09-18T14:18:03;5.15;;;1.50;;
16612;SDS011;8419;52.358;9.752;2023-09-18T14:20:49;2.42;;;1.50;;
16612;SDS011;8419;52.358;9.752;2023-09-18T14:23:34;3.95;;;1.80;;
16612;SDS011;8419;52.358;9.752;2023-09-18T14:26:20;3.15;;;1.75;;
16612;SDS011;8419;52.358;9.752;2023-09-18T14:29:06;2.80;;;1.70;;
16612;SDS011;8419;52.358;9.752;2023-09-18T14:31:52;4.00;;;1.30;;
16612;SDS011;8419;52.358;9.752;2023-09-18T14:34:38;4.68;;;1.58;;
16612;SDS011;8419;52.358;9.752;2023-09-18T14:37:24;4.10;;;1.83;;
16612;SDS011;8419;52.358;9.752;2023-09-18T14:40:10;4.53;;;1.45;;
16612;SDS011;8419;52.358;9.752;2023-09-18T14:42:56;2.60;;;1.25;;
16612;SDS011;8419;52.358;9.752;2023-09-18T14:45:41;2.33;;;1.10;;
16612;SDS011;8419;52.358;9.752;2023-09-18T14:48:29;7.22;;;1.40;;
16612;SDS011;8419;52.358;9.752;2023-09-18T14:51:16;2.92;;;1.20;;
16612;SDS011;8419;52.358;9.752;2023-09-18T14:54:02;2.17;;;1.35;;
16612;SDS011;8419;52.358;9.752;2023-09-18T14:56:49;3.25;;;1.20;;
16612;SDS011;8419;52.358;9.752;2023-09-18T14:59:34;2.15;;;1.17;;
16612;SDS011;8419;52.358;9.752;2023-09-18T15:02:20;3.12;;;1.30;;
16612;SDS011;8419;52.358;9.752;2023-09-18T15:05:06;3.03;;;1.27;;
16612;SDS011;8419;52.358;9.752;2023-09-18T15:07:56;1.80;;;1.25;;
16612;SDS011;8419;52.358;9.752;2023-09-18T15:10:42;4.70;;;1.45;;
16612;SDS011;8419;52.358;9.752;2023-09-18T15:13:28;2.95;;;1.23;;
16612;SDS011;8419;52.358;9.752;2023-09-18T15:16:14;4.95;;;1.00;;
16612;SDS011;8419;52.358;9.752;2023-09-18T15:18:59;2.45;;;1.58;;
16612;SDS011;8419;52.358;9.752;2023-09-18T15:21:48;2.00;;;1.40;;
16612;SDS011;8419;52.358;9.752;2023-09-18T15:24:36;1.83;;;1.20;;
16612;SDS011;8419;52.358;9.752;2023-09-18T15:27:22;3.65;;;1.50;;
16612;SDS011;8419;52.358;9.752;2023-09-18T15:30:08;3.20;;;1.50;;
16612;SDS011;8419;52.358;9.752;2023-09-18T15:32:55;4.43;;;1.10;;
16612;SDS011;8419;52.358;9.752;2023-09-18T15:35:41;1.95;;;1.17;;
16612;SDS011;8419;52.358;9.752;2023-09-18T15:38:26;1.10;;;1.00;;
16612;SDS011;8419;52.358;9.752;2023-09-18T15:41:14;2.15;;;1.10;;
16612;SDS011;8419;52.358;9.752;2023-09-18T15:44:00;3.22;;;1.48;;
16612;SDS011;8419;52.358;9.752;2023-09-18T15:46:45;3.92;;;1.23;;
16612;SDS011;8419;52.358;9.752;2023-09-18T15:49:31;4.85;;;1.17;;
16612;SDS011;8419;52.358;9.752;2023-09-18T15:52:16;2.42;;;1.30;;
16612;SDS011;8419;52.358;9.752;2023-09-18T15:55:02;3.65;;;1.25;;
16612;SDS011;8419;52.358;9.752;2023-09-18T15:57:49;1.42;;;0.90;;
16612;SDS011;8419;52.358;9.752;2023-09-18T16:00:36;1.95;;;1.20;;
16612;SDS011;8419;52.358;9.752;2023-09-18T16:03:23;4.20;;;1.37;;
16612;SDS011;8419;52.358;9.752;2023-09-18T16:06:08;3.17;;;1.35;;
16612;SDS011;8419;52.358;9.752;2023-09-18T16:08:54;4.62;;;1.17;;
16612;SDS011;8419;52.358;9.752;2023-09-18T16:11:41;2.58;;;1.00;;
16612;SDS011;8419;52.358;9.752;2023-09-18T16:14:26;1.20;;;1.00;;
16612;SDS011;8419;52.358;9.752;2023-09-18T16:17:12;1.67;;;1.00;;
16612;SDS011;8419;52.358;9.752;2023-09-18T16:19:57;4.47;;;1.12;;
16612;SDS011;8419;52.358;9.752;2023-09-18T16:22:45;2.65;;;1.10;;
16612;SDS011;8419;52.358;9.752;2023-09-18T16:25:31;3.17;;;1.55;;
16612;SDS011;8419;52.358;9.752;2023-09-18T16:28:18;1.62;;;1.00;;
16612;SDS011;8419;52.358;9.752;2023-09-18T16:31:04;3.10;;;1.23;;
16612;SDS011;8419;52.358;9.752;2023-09-18T16:33:53;1.52;;;1.12;;
16612;SDS011;8419;52.358;9.752;2023-09-18T16:36:38;4.18;;;1.27;;
16612;SDS011;8419;52.358;9.752;2023-09-18T16:39:24;2.20;;;1.23;;
16612;SDS011;8419;52.358;9.752;2023-09-18T16:42:10;1.50;;;1.17;;
16612;SDS011;8419;52.358;9.752;2023-09-18T16:44:55;2.25;;;1.17;;
16612;SDS011;8419;52.358;9.752;2023-09-18T16:47:43;2.25;;;1.30;;
16612;SDS011;8419;52.358;9.752;2023-09-18T16:50:29;1.05;;;0.95;;
16612;SDS011;8419;52.358;9.752;2023-09-18T16:53:15;2.35;;;1.23;;
16612;SDS011;8419;52.358;9.752;2023-09-18T16:56:01;3.55;;;1.20;;
16612;SDS011;8419;52.358;9.752;2023-09-18T16:58:48;4.07;;;1.17;;
16612;SDS011;8419;52.358;9.752;2023-09-18T17:01:33;3.37;;;1.48;;
16612;SDS011;8419;52.358;9.752;2023-09-18T17:04:19;1.85;;;1.20;;